x

South Kodiak - 310nm Ssw Of Kodiak, Ak (46066) Wave Buoy

3:50pm - Tue 3rd Mar 2015 All times are UTC.

  • Sig Wave height 9.5ft
  • Swell Direction
  • Peak Period 14s
  • Average Period 8s
  • Wind
    18mph, 22mph gusts
  • Sea Temp 41°f
  • Air Temp 42°f
  • Sea Pressure 1012.9mb

More Historic Weather Station data

Upgrade to MSW Pro to gain access to the past 30 days of data for over 8000 Wavebouys and Weather Stations around the globe.

Join Pro

Comparision Forecast

View Surf forecast
   
Tue 03/03 3:50pm 9.5ft 14s 8s 18 22 mph 1012.9mb 41f 42f
2:50pm 9ft 14s 8s 13 16 mph 1012.8mb 41f 42f
1:50pm 9ft 13s 8s 13 18 mph 1012.6mb 41f 42f
12:50pm 8ft 14s 8s 13 16 mph 1013.2mb 41f 42f
11:50am 7.5ft 14s 7s 11 13 mph 1013.7mb 41f 41f
10:50am 7ft 15s 7s 16 20 mph 1014.1mb 41f 41f
9:50am 7ft 14s 6s 11 13 mph 1014mb 41f 41f
8:50am 7ft 15s 6s 13 16 mph 1014.2mb 41f 40f
7:50am 7ft 15s 6s 16 20 mph 1014.1mb 41f 40f
6:50am 7ft 6s 6s 18 22 mph 1013.8mb 41f 40f
5:50am 7ft 6s 6s 18 22 mph 1013.3mb 41f 40f
4:50am 7.5ft 10s 6s 20 22 mph 1012.7mb 41f 40f
3:50am 7ft 15s 6s 20 25 mph 1011.7mb 41f 40f
2:50am 6.5ft 15s 6s 22 25 mph 1011.1mb 41f 40f
1:50am 7ft 16s 6s 20 25 mph 1010.9mb 41f 41f
12:50am 6.5ft 9s 6s 22 27 mph 1010.3mb 41f 41f
Mon 03/02 11:50pm 6ft 6s 5s 18 22 mph 1009.6mb 41f 42f
10:50pm 6ft 10s 6s 20 25 mph 1009.3mb 41f 41f
9:50pm 6ft 9s 5s 22 25 mph 1008.7mb 41f 41f
8:50pm 5.5ft 8s 6s 20 25 mph 1008mb 41f 42f
7:50pm 5ft 10s 5s 18 22 mph 1007.3mb 41f 41f
6:50pm 5ft 9s 6s 16 18 mph 1006.8mb 41f 42f
5:50pm 5ft 10s 6s 16 18 mph 1006.1mb 41f 42f
4:50pm 5ft 8s 6s 16 18 mph 1005.9mb 41f 42f
3:50pm 5ft 8s 6s 18 22 mph 1006mb 41f 42f
2:50pm 5ft 9s 6s 9 13 mph 1006mb 41f 42f
1:50pm 5ft 9s 6s 11
mph
1007mb 41f 42f
12:50pm 6ft 9s 6s 11
mph
1009.2mb 41f 42f
11:50am 5ft 10s 6s 11 16 mph 1009.8mb 41f 42f
10:50am 5.5ft 9s 6s 13 16 mph 1010.7mb 41f 42f
9:50am 5ft 9s 6s 13 16 mph 1012mb 41f 42f
8:50am 5ft 9s 6s 13 16 mph 1013.3mb 41f 42f
7:50am 5.5ft 9s 6s 16 18 mph 1013.9mb 41f 42f
6:50am 5.5ft 9s 6s 16 18 mph 1014.8mb 41f 42f
5:50am 5.5ft 9s 6s 16 18 mph 1016mb 41f 42f
4:50am 6ft 9s 6s 16 18 mph 1016.8mb 41f 42f
3:50am 6ft 9s 6s 16 18 mph 1017.3mb 41f 42f
2:50am 6ft 10s 7s 13 16 mph 1018.4mb 41f 42f
1:50am 5.5ft 10s 6s 13 16 mph 1019mb 41f 42f
12:50am 6ft 9s 6s 13 16 mph 1019.5mb 41f 42f
Sun 03/01 11:50pm 6ft 8s 6s 13 18 mph 1020.3mb 41f 42f
10:50pm 6ft 9s 6s 16 18 mph 1021mb 41f 42f
9:50pm 6ft 8s 6s 16 18 mph 1021.8mb 41f 42f
8:50pm 6ft 9s 6s 16 18 mph 1022.3mb 41f 42f
7:50pm 5.5ft 8s 6s 16 20 mph 1022.8mb 41f 42f
6:50pm 5ft 10s 6s 16 18 mph 1022.9mb 41f 42f
5:50pm 4.5ft 10s 6s 16 20 mph 1022.8mb 41f 42f
4:50pm 4.5ft 11s 5s 16 20 mph 1023.2mb 41f 42f
3:50pm 4.5ft 11s 5s 20 22 mph 1023.6mb 41f 42f
2:50pm 4.5ft 11s 5s 18 22 mph 1024mb 41f 42f
1:50pm 4.5ft 11s 6s 18 22 mph 1024.1mb 41f 42f
11:50am 4.5ft 11s 6s 16 18 mph 1024.6mb 41f 42f
10:50am 4ft 11s 6s 13 16 mph 1024.9mb 41f 42f
9:50am 4ft 11s 6s 11 13 mph 1025.4mb 41f 42f
8:50am 4.5ft 6s 6s 11
mph
1025.6mb 41f 41f
7:50am 4.5ft 11s 6s 9 11 mph 1025.1mb 41f 41f
6:50am 4.5ft 11s 7s 9 11 mph 1025.2mb 41f 41f
5:50am 4.5ft 11s 7s 9
mph
1024.9mb 41f 41f
4:50am 4.5ft 11s 7s 7 9 mph 1025.2mb 41f 42f
3:50am 5ft 11s 8s 11
mph
1024.8mb 41f 42f
2:50am 6ft 11s 8s 7 9 mph 1024.2mb 41f 42f
1:50am 5.5ft 10s 7s 4 7 mph 1024.4mb 41f 42f
12:50am 7ft 11s 8s 7
mph
1024.6mb 41f 42f
Sat 02/28 11:50pm 6ft 11s 7s 7
mph
1024.6mb 41f 42f
10:50pm 6ft 11s 7s 7
mph
1024.7mb 41f 42f
9:50pm 5.5ft 12s 7s 4 7 mph 1024.8mb 41f 42f
8:50pm 5ft 7s 6s 4 7 mph 1024.6mb 41f 42f
7:50pm 5.5ft 7s 6s 11 13 mph 1024.6mb 41f 42f
6:50pm 4.5ft 7s 6s 9 11 mph 1023.7mb 41f 42f
5:50pm 5ft 7s 6s 7
mph
1023mb 41f 42f
4:50pm 5ft 7s 6s 9 11 mph 1022.5mb 41f 42f
3:50pm 5.5ft 12s 7s 11 13 mph 1022.3mb 41f 42f
2:50pm 7ft 12s 7s 13 16 mph 1022mb 41f 42f
1:50pm 6.5ft 12s 7s 13 16 mph 1021.9mb 41f 42f
12:50pm 7ft 12s 7s 16 18 mph 1021.9mb 41f 42f
11:50am 7ft 12s 7s 13 16 mph 1021.5mb 41f 42f
10:50am 7ft 7s 7s 13 16 mph 1021.4mb 41f 42f
9:50am 7ft 7s 6s 13 16 mph 1021.3mb 41f 42f
8:50am 6ft 8s 6s 13 16 mph 1021.2mb 41f 42f
7:50am 6.5ft 8s 6s 13 16 mph 1021mb 41f 42f
6:50am 6.5ft 7s 6s 13 16 mph 1020.6mb 41f 42f
5:50am 6ft 8s 6s 13 16 mph 1020.4mb 41f 42f
4:50am 6ft 8s 6s 13 16 mph 1019.9mb 41f 42f
3:50am 7ft 8s 6s 13 16 mph 1019.4mb 41f 42f
2:50am 8ft 8s 7s 13 16 mph 1019.1mb 41f 42f
1:50am 8ft 8s 7s 13 16 mph 1019.2mb 41f 42f
12:50am 7.5ft 8s 7s 13 18 mph 1019.3mb 41f 42f
Fri 02/27 11:50pm 9ft 8s 7s 16 18 mph 1019.5mb 41f 42f
10:50pm 9ft 7s 6s 18 20 mph 1020mb 41f 42f
9:50pm 8.5ft 7s 6s 18 22 mph 1020.2mb 41f 42f
8:50pm 9ft 8s 6s 22 25 mph 1020.2mb 41f 42f
7:50pm 9ft 7s 6s 22 27 mph 1020.5mb 41f 42f
6:50pm 9ft 7s 6s 22 29 mph 1020.9mb 41f 42f
5:50pm 8ft 7s 6s 25 31 mph 1021.2mb 41f 42f